createdAt,value
2016-05-16T00:00:14.100Z,74.71
2016-05-16T00:01:13.290Z,74.71
2016-05-16T00:02:29.965Z,74.62
2016-05-16T00:03:14.779Z,74.62
2016-05-16T00:04:14.361Z,74.33
2016-05-16T00:05:13.597Z,74.62
2016-05-16T00:06:13.788Z,75
2016-05-16T00:07:13.259Z,75
2016-05-16T00:08:13.715Z,74.81
2016-05-16T00:09:13.233Z,75
2016-05-16T00:10:13.970Z,75.19
2016-05-16T00:11:13.222Z,75.85
2016-05-16T00:12:13.319Z,75.76
2016-05-16T00:13:13.511Z,75.57
2016-05-16T00:14:13.341Z,75.67
2016-05-16T00:15:13.187Z,75.57
2016-05-16T00:16:13.189Z,75.57
2016-05-16T00:17:13.192Z,75.38
2016-05-16T00:18:13.163Z,75.47
2016-05-16T00:19:13.166Z,75.72
2016-05-16T00:20:13.029Z,75.62
2016-05-16T00:21:13.157Z,76.32
2016-05-16T00:22:12.987Z,76.1
2016-05-16T00:23:13.130Z,76.2
2016-05-16T00:24:13.118Z,76.2
2016-05-16T00:25:13.121Z,76.2
2016-05-16T00:26:13.107Z,76.2
2016-05-16T00:27:13.110Z,75.81
2016-05-16T00:28:12.941Z,76.39
2016-05-16T00:29:13.084Z,76.67
2016-05-16T00:30:13.087Z,76.48
2016-05-16T00:31:13.089Z,76.39
2016-05-16T00:32:12.905Z,76.29
2016-05-16T00:33:13.064Z,76.48
2016-05-16T00:34:13.051Z,76.86
2016-05-16T00:35:13.053Z,76.95
2016-05-16T00:36:13.040Z,77.05
2016-05-16T00:37:13.028Z,76.76
2016-05-16T00:38:13.030Z,77.24
2016-05-16T00:39:13.001Z,77.14
2016-05-16T00:40:13.004Z,76.86
2016-05-16T00:41:12.992Z,77.33
2016-05-16T00:42:12.994Z,77.05
2016-05-16T00:43:12.981Z,77.33
2016-05-16T00:44:12.811Z,77.71
2016-05-16T00:45:12.814Z,77.62
2016-05-16T00:46:12.958Z,77.62
2016-05-16T00:47:12.945Z,77.81
2016-05-16T00:48:12.947Z,78.24
2016-05-16T00:49:12.935Z,78.09
2016-05-16T00:50:12.922Z,77.77
2016-05-16T00:51:12.924Z,77.62
2016-05-16T00:52:12.911Z,77.9
2016-05-16T00:53:12.899Z,77.86
2016-05-16T00:54:12.902Z,77.86
2016-05-16T00:55:12.888Z,78.62
2016-05-16T00:56:12.876Z,78.34
2016-05-16T00:57:12.879Z,78.53
2016-05-16T00:58:12.866Z,78.43
2016-05-16T00:59:12.851Z,78.15
2016-05-16T01:00:12.854Z,78.43
2016-05-16T01:01:12.842Z,78.53
2016-05-16T01:02:12.829Z,78.62
2016-05-16T01:03:12.832Z,79
2016-05-16T01:04:12.834Z,78.72
2016-05-16T01:05:13.150Z,79.19
2016-05-16T01:06:12.808Z,79.1
2016-05-16T01:07:12.640Z,78.72
2016-05-16T01:08:12.783Z,79.47
2016-05-16T01:09:12.786Z,79.47
2016-05-16T01:10:12.773Z,79.28
2016-05-16T01:11:13.541Z,79.28
2016-05-16T01:13:12.750Z,79.19
2016-05-16T01:14:12.815Z,79.1
2016-05-16T01:15:12.755Z,79.47
2016-05-16T01:16:13.507Z,79.95
2016-05-16T01:17:12.713Z,79.85
2016-05-16T01:18:26.872Z,79.95
2016-05-16T01:19:12.703Z,79.66
2016-05-16T01:20:12.847Z,79.76
2016-05-16T01:21:14.208Z,79.66
2016-05-16T01:22:13.335Z,79.66
2016-05-16T01:23:12.667Z,79.85
2016-05-16T01:24:13.233Z,80.04
2016-05-16T01:25:13.329Z,80.04
2016-05-16T01:26:13.299Z,80.43
2016-05-16T01:27:13.850Z,80.14
2016-05-16T01:28:13.242Z,80.24
2016-05-16T01:29:12.621Z,80.37
2016-05-16T01:30:12.607Z,80.33
2016-05-16T01:31:12.860Z,80.04
2016-05-16T01:32:12.598Z,79.95
2016-05-16T01:33:12.585Z,80.04
2016-05-16T01:34:12.571Z,80.04
2016-05-16T01:35:12.589Z,80.14
2016-05-16T01:36:12.561Z,79.95
2016-05-16T01:37:12.549Z,80.18
2016-05-16T01:38:12.395Z,80.08
2016-05-16T01:39:12.537Z,80.08
2016-05-16T01:40:12.526Z,80.18
2016-05-16T01:41:12.512Z,80.18
2016-05-16T01:42:12.514Z,80.37
2016-05-16T01:43:12.503Z,80.46
2016-05-16T01:44:12.489Z,80.27
2016-05-16T01:45:12.491Z,80.08
2016-05-16T01:46:12.479Z,79.9
2016-05-16T01:47:12.481Z,79.8
2016-05-16T01:48:12.468Z,79.71
2016-05-16T01:49:12.456Z,79.94
2016-05-16T01:50:12.286Z,79.74
2016-05-16T01:51:12.475Z,79.55
2016-05-16T01:52:12.504Z,79.36
2016-05-16T01:53:12.531Z,79.65
2016-05-16T01:54:12.573Z,79.36
2016-05-16T01:55:12.602Z,79.36
2016-05-16T01:56:12.609Z,79.17
2016-05-16T01:57:12.626Z,78.7
2016-05-16T01:58:12.628Z,79.17
2016-05-16T01:59:12.645Z,78.7
2016-05-16T02:00:12.647Z,78.55
2016-05-16T02:01:12.641Z,78.55
2016-05-16T02:02:12.650Z,78.51
2016-05-16T02:03:12.642Z,78.45
2016-05-16T02:04:12.635Z,78.64
2016-05-16T02:05:12.643Z,78.17
2016-05-16T02:06:12.632Z,77.98
2016-05-16T02:07:12.637Z,78.08
2016-05-16T02:08:12.626Z,78.36
2016-05-16T02:09:12.615Z,77.6
2016-05-16T02:10:12.604Z,77.79
2016-05-16T02:11:12.452Z,77.51
2016-05-16T02:12:12.596Z,76.84
2016-05-16T02:13:12.583Z,77.22
2016-05-16T02:14:12.587Z,76.84
2016-05-16T02:15:12.574Z,77.31
2016-05-16T02:16:12.421Z,77.31
2016-05-16T02:17:12.564Z,76.75
2016-05-16T02:18:12.552Z,76.27
2016-05-16T02:19:12.554Z,76.27
2016-05-16T02:20:12.541Z,76.75
2016-05-16T02:21:12.529Z,76.65
2016-05-16T02:22:12.531Z,76.5
2016-05-16T02:23:12.517Z,76.65
2016-05-16T02:24:12.521Z,76.75
2016-05-16T02:25:12.508Z,75.99
2016-05-16T02:26:12.339Z,76.12
2016-05-16T02:27:12.497Z,76.08
2016-05-16T02:28:12.484Z,76.27
2016-05-16T02:29:12.472Z,75.64
2016-05-16T02:31:12.774Z,75.7
2016-05-16T02:32:13.620Z,75.74
2016-05-16T02:33:13.138Z,75.84
2016-05-16T02:34:12.314Z,75.74
2016-05-16T02:35:13.363Z,75.45
2016-05-16T02:36:12.944Z,75.55
2016-05-16T02:37:26.602Z,74.6
2016-05-16T02:38:12.621Z,74.88
2016-05-16T02:39:12.952Z,75.36
2016-05-16T02:40:12.408Z,74.98
2016-05-16T02:41:12.394Z,74.51
2016-05-16T02:42:12.850Z,74.79
2016-05-16T02:43:13.118Z,74.6
2016-05-16T02:44:12.746Z,74.98
2016-05-16T02:45:12.374Z,74.79
2016-05-16T02:46:12.767Z,75.07
2016-05-16T02:47:12.521Z,74.51
2016-05-16T02:48:12.601Z,74.51
2016-05-16T02:49:12.651Z,74.51
2016-05-16T02:50:12.215Z,74.6
2016-05-16T02:51:12.328Z,74.22
2016-05-16T02:52:12.330Z,74.12
2016-05-16T02:53:12.318Z,74.26
2016-05-16T02:54:12.320Z,74.44
2016-05-16T02:55:12.307Z,74.79
2016-05-16T02:56:12.294Z,73.97
2016-05-16T02:57:12.141Z,73.69
2016-05-16T02:58:12.128Z,73.69
2016-05-16T02:59:12.287Z,73.69
2016-05-16T03:00:12.274Z,74.26
2016-05-16T03:01:12.292Z,73.69
2016-05-16T03:02:12.280Z,73.59
2016-05-16T03:03:12.250Z,73.59
2016-05-16T03:04:12.253Z,73.78
2016-05-16T03:05:13.052Z,73.69
2016-05-16T03:06:12.243Z,73.11
2016-05-16T03:07:12.230Z,73.4
2016-05-16T03:08:12.233Z,73.4
2016-05-16T03:09:12.219Z,73.21
2016-05-16T03:10:12.238Z,73.69
2016-05-16T03:11:12.210Z,73.11
2016-05-16T03:12:12.197Z,73.11
2016-05-16T03:13:12.199Z,73.02
2016-05-16T03:14:12.187Z,73.27
2016-05-16T03:15:12.189Z,73.08
2016-05-16T03:16:12.176Z,73.3
2016-05-16T03:17:12.163Z,73.3
2016-05-16T03:18:12.166Z,73.27
2016-05-16T03:19:12.153Z,72.99
2016-05-16T03:20:12.171Z,73.02
2016-05-16T03:21:12.143Z,73.3
2016-05-16T03:22:12.129Z,73.49
2016-05-16T03:23:12.132Z,73.02
2016-05-16T03:24:12.120Z,72.92
2016-05-16T03:25:12.123Z,73.02
2016-05-16T03:26:11.953Z,72.74
2016-05-16T03:27:12.097Z,72.64
2016-05-16T03:28:12.099Z,72.74
2016-05-16T03:29:11.930Z,72.35
2016-05-16T03:30:12.089Z,72.35
2016-05-16T03:31:12.092Z,72.16
2016-05-16T03:32:12.078Z,72.45
2016-05-16T03:33:12.066Z,72.26
2016-05-16T03:34:12.053Z,72.26
2016-05-16T03:35:12.071Z,72.45
2016-05-16T03:36:12.058Z,72.74
2016-05-16T03:37:12.045Z,73.11
2016-05-16T03:38:12.032Z,73.11
2016-05-16T03:39:12.035Z,73.02
2016-05-16T03:40:12.022Z,73.11
2016-05-16T03:41:12.009Z,73.21
2016-05-16T03:42:12.012Z,73.21
2016-05-16T03:43:11.843Z,73.49
2016-05-16T03:44:12.002Z,73.78
2016-05-16T03:45:11.988Z,73.49
2016-05-16T03:46:11.976Z,73.78
2016-05-16T03:47:11.979Z,73.88
2016-05-16T03:48:11.965Z,73.69
2016-05-16T03:49:13.437Z,74.31
2016-05-16T03:50:11.971Z,74.35
2016-05-16T03:51:11.957Z,74.54
2016-05-16T03:52:12.992Z,74.54
2016-05-16T03:53:11.948Z,74.41
2016-05-16T03:54:11.934Z,74.26
2016-05-16T03:55:12.625Z,74.12
2016-05-16T03:56:12.612Z,74.26
2016-05-16T03:57:11.912Z,74.54
2016-05-16T03:59:13.604Z,73.97
2016-05-16T04:00:12.888Z,73.69
2016-05-16T04:01:12.938Z,73.69
2016-05-16T04:02:12.659Z,73.78
2016-05-16T04:03:11.881Z,73.11
2016-05-16T04:04:12.196Z,73.21
2016-05-16T04:05:12.230Z,73.21
2016-05-16T04:06:12.217Z,73.21
2016-05-16T04:08:12.160Z,73.3
2016-05-16T04:09:11.678Z,73.21
2016-05-16T04:10:11.837Z,72.92
2016-05-16T04:11:11.683Z,72.83
2016-05-16T04:12:11.921Z,73.21
2016-05-16T04:13:11.657Z,73.3
2016-05-16T04:14:11.816Z,73.02
2016-05-16T04:15:11.804Z,72.55
2016-05-16T04:16:11.822Z,72.55
2016-05-16T04:17:11.637Z,72.45
2016-05-16T04:18:11.780Z,72.55
2016-05-16T04:19:11.626Z,72.07
2016-05-16T04:20:11.957Z,72.16
2016-05-16T04:21:11.773Z,71.78
2016-05-16T04:22:11.760Z,71.78
2016-05-16T04:23:11.747Z,71.78
2016-05-16T04:24:11.843Z,71.5
2016-05-16T04:25:11.737Z,71.59
2016-05-16T04:26:11.739Z,71.22
2016-05-16T04:27:11.726Z,71.63
2016-05-16T04:28:11.729Z,71.53
2016-05-16T04:29:11.576Z,71.15
2016-05-16T04:30:11.719Z,71.15
2016-05-16T04:31:11.550Z,71.34
2016-05-16T04:32:11.708Z,71.15
2016-05-16T04:33:11.695Z,70.77
2016-05-16T04:34:11.698Z,70.97
2016-05-16T04:35:11.936Z,70.39
2016-05-16T04:36:11.672Z,70.49
2016-05-16T04:37:11.675Z,70.1
2016-05-16T04:38:11.663Z,70.01
2016-05-16T04:39:11.666Z,70.05
2016-05-16T04:40:11.668Z,69.57
2016-05-16T04:41:11.655Z,69.48
2016-05-16T04:42:11.642Z,69.19
2016-05-16T04:43:11.644Z,69.57
2016-05-16T04:44:11.632Z,68.62
2016-05-16T04:45:11.634Z,68.71
2016-05-16T04:46:11.465Z,68.81
2016-05-16T04:47:11.624Z,68.33
2016-05-16T04:48:11.611Z,68.43
2016-05-16T04:49:11.613Z,68.43
2016-05-16T04:50:11.460Z,68.43
2016-05-16T04:51:11.618Z,68.71
2016-05-16T04:52:11.607Z,68.52
2016-05-16T04:53:11.593Z,68.05
2016-05-16T04:54:11.581Z,68.15
2016-05-16T04:55:11.583Z,68.24
2016-05-16T04:56:11.570Z,68.43
2016-05-16T04:57:11.573Z,68.33
2016-05-16T04:58:11.559Z,67.86
2016-05-16T04:59:11.562Z,67.57
2016-05-16T05:00:11.550Z,67.38
2016-05-16T05:01:11.553Z,67.47
2016-05-16T05:02:11.555Z,67.38
2016-05-16T05:03:11.542Z,67.76
2016-05-16T05:04:11.544Z,67.29
2016-05-16T05:05:11.547Z,67.29
2016-05-16T05:06:11.519Z,67.1
2016-05-16T05:07:11.519Z,67.57
2016-05-16T05:08:12.055Z,67.1
2016-05-16T05:09:11.933Z,67.47
2016-05-16T05:10:11.496Z,66.91
2016-05-16T05:11:12.329Z,67.38
2016-05-16T05:12:11.501Z,66.72
2016-05-16T05:13:11.488Z,67.19
2016-05-16T05:14:11.838Z,66.72
2016-05-16T05:15:11.478Z,66.72
2016-05-16T05:16:11.983Z,66.81
2016-05-16T05:17:12.938Z,67
2016-05-16T05:18:11.973Z,67.1
2016-05-16T05:19:12.413Z,66.46
2016-05-16T05:20:12.276Z,66.05
2016-05-16T05:21:11.307Z,66.43
2016-05-16T05:22:11.496Z,66.46
2016-05-16T05:23:11.437Z,65.8
2016-05-16T05:24:11.267Z,65.77
2016-05-16T05:25:11.427Z,65.89
2016-05-16T05:26:12.135Z,65.7
2016-05-16T05:27:11.417Z,65.95
2016-05-16T05:28:11.762Z,65.7
2016-05-16T05:29:11.406Z,65.42
2016-05-16T05:30:11.393Z,65.7
2016-05-16T05:31:11.395Z,65.42
2016-05-16T05:32:11.398Z,65.51
2016-05-16T05:33:11.386Z,65.23
2016-05-16T05:34:11.389Z,65.32
2016-05-16T05:35:11.376Z,65.23
2016-05-16T05:36:11.362Z,65.42
2016-05-16T05:37:11.364Z,64.84
2016-05-16T05:38:11.368Z,64.56
2016-05-16T05:39:11.355Z,64.75
2016-05-16T05:40:11.358Z,64.65
2016-05-16T05:41:11.344Z,64.75
2016-05-16T05:42:11.347Z,64.94
2016-05-16T05:43:11.334Z,64.75
2016-05-16T05:44:11.181Z,64.94
2016-05-16T05:45:11.340Z,64.75
2016-05-16T05:46:11.327Z,64.56
2016-05-16T05:47:11.313Z,64.28
2016-05-16T05:48:11.317Z,63.6
2016-05-16T05:49:11.318Z,63.6
2016-05-16T05:50:11.307Z,64.08
2016-05-16T05:51:11.309Z,64.37
2016-05-16T05:52:11.296Z,63.51
2016-05-16T05:53:11.298Z,63.51
2016-05-16T05:54:11.286Z,63.42
2016-05-16T05:55:11.288Z,63.51
2016-05-16T05:56:11.291Z,63.6
2016-05-16T05:57:11.279Z,62.88
2016-05-16T05:58:11.281Z,63.51
2016-05-16T05:59:11.112Z,63.07
2016-05-16T06:00:11.255Z,63.17
2016-05-16T06:01:11.258Z,63.17
2016-05-16T06:02:11.261Z,62.78
2016-05-16T06:03:11.248Z,62.97
2016-05-16T06:04:11.250Z,62.3
2016-05-16T06:05:11.097Z,62.59
2016-05-16T06:06:11.084Z,62.49
2016-05-16T06:07:11.227Z,61.73
2016-05-16T06:08:11.230Z,61.83
2016-05-16T06:09:11.233Z,61.64
2016-05-16T06:10:11.219Z,61.73
2016-05-16T06:11:11.222Z,61.48
2016-05-16T06:12:11.208Z,61
2016-05-16T06:13:11.212Z,61.29
2016-05-16T06:14:11.199Z,61.38
2016-05-16T06:15:11.202Z,61.48
2016-05-16T06:16:11.048Z,60.81
2016-05-16T06:17:11.207Z,60.62
2016-05-16T06:18:11.193Z,60.72
2016-05-16T06:19:11.181Z,60.91
2016-05-16T06:20:11.185Z,60.81
2016-05-16T06:21:11.030Z,60.72
2016-05-16T06:22:11.190Z,60.62
2016-05-16T06:23:11.020Z,60.72
2016-05-16T06:24:11.163Z,60.72
2016-05-16T06:25:11.166Z,61
2016-05-16T06:26:11.153Z,60.62
2016-05-16T06:27:11.156Z,60.4
2016-05-16T06:28:12.862Z,61.07
2016-05-16T06:29:11.676Z,60.69
2016-05-16T06:30:12.007Z,60.49
2016-05-16T06:31:11.964Z,60.59
2016-05-16T06:32:11.669Z,60.97
2016-05-16T06:33:11.141Z,60.05
2016-05-16T06:34:12.236Z,60.24
2016-05-16T06:35:26.243Z,60.24
2016-05-16T06:36:12.587Z,60.05
2016-05-16T06:37:11.120Z,60.05
2016-05-16T06:38:11.123Z,59.76
2016-05-16T06:39:11.110Z,60.14
2016-05-16T06:40:11.159Z,59.95
2016-05-16T06:41:11.100Z,59.57
2016-05-16T06:42:12.462Z,59.67
2016-05-16T06:43:11.402Z,59.48
2016-05-16T06:44:11.842Z,59.48
2016-05-16T06:45:11.079Z,59.38
2016-05-16T06:46:11.082Z,59.57
2016-05-16T06:47:11.085Z,59.48
2016-05-16T06:48:10.916Z,59.48
2016-05-16T06:49:10.919Z,59.38
2016-05-16T06:50:11.093Z,59.67
2016-05-16T06:51:11.064Z,59.67
2016-05-16T06:52:11.052Z,59.48
2016-05-16T06:53:11.054Z,59.57
2016-05-16T06:54:11.057Z,59.57
2016-05-16T06:55:11.043Z,59.54
2016-05-16T06:56:11.046Z,59.38
2016-05-16T06:57:10.893Z,59.48
2016-05-16T06:58:11.052Z,59.57
2016-05-16T06:59:11.039Z,59.67
2016-05-16T07:00:11.088Z,59.09
2016-05-16T07:01:11.028Z,59
2016-05-16T07:02:11.125Z,58.91
2016-05-16T07:03:11.018Z,58.81
2016-05-16T07:04:11.020Z,59
2016-05-16T07:05:11.040Z,58.72
2016-05-16T07:06:11.011Z,58.72
2016-05-16T07:07:10.997Z,58.72
2016-05-16T07:08:11.001Z,58.91
2016-05-16T07:09:10.847Z,58.55
2016-05-16T07:10:10.990Z,58.55
2016-05-16T07:11:10.992Z,58.75
2016-05-16T07:12:10.980Z,58.55
2016-05-16T07:13:10.983Z,57.79
2016-05-16T07:14:10.986Z,57.98
2016-05-16T07:15:10.972Z,57.92
2016-05-16T07:16:10.975Z,57.24
2016-05-16T07:17:10.963Z,57.34
2016-05-16T07:18:10.965Z,56.48
2016-05-16T07:19:10.968Z,56.23
2016-05-16T07:20:10.970Z,55.55
2016-05-16T07:21:10.957Z,55.2
2016-05-16T07:22:10.960Z,54.56
2016-05-16T07:23:10.963Z,53.44
2016-05-16T07:24:10.966Z,52.7
2016-05-16T07:25:10.952Z,52.03
2016-05-16T07:26:10.955Z,51.29
2016-05-16T07:27:10.957Z,50.36
2016-05-16T07:28:10.960Z,49.14
2016-05-16T07:29:10.948Z,48.11
2016-05-16T07:30:10.965Z,47.85
2016-05-16T07:31:10.969Z,46.7
2016-05-16T07:32:10.971Z,46.34
2016-05-16T07:33:10.801Z,45.67
2016-05-16T07:34:10.961Z,45.01
2016-05-16T07:35:10.979Z,43.87
2016-05-16T07:36:10.982Z,43.12
2016-05-16T07:37:10.984Z,42.64
2016-05-16T07:38:11.003Z,42.08
2016-05-16T07:39:10.990Z,41.33
2016-05-16T07:40:10.993Z,40.68
2016-05-16T07:41:11.012Z,39.74
2016-05-16T07:42:11.013Z,37.83
2016-05-16T07:43:11.017Z,37.35
2016-05-16T07:44:11.019Z,36.99
2016-05-16T07:46:12.461Z,35.65
2016-05-16T07:47:11.433Z,34.69
2016-05-16T07:48:12.420Z,34.3
2016-05-16T07:49:11.063Z,34.5
2016-05-16T07:50:11.630Z,33.33
2016-05-16T07:51:11.147Z,33.33
2016-05-16T07:52:11.650Z,33.12
2016-05-16T07:53:10.949Z,33.58
2016-05-16T07:54:11.108Z,34.06
2016-05-16T07:55:12.221Z,34.05
2016-05-16T07:56:12.848Z,34.43
2016-05-16T07:57:12.179Z,34.05
2016-05-16T07:58:11.134Z,34.33
2016-05-16T07:59:11.497Z,34.51
2016-05-16T08:00:11.157Z,34.43
2016-05-16T08:01:11.549Z,34.05
2016-05-16T08:02:11.302Z,33.66
2016-05-16T08:03:11.179Z,33.56
2016-05-16T08:04:11.167Z,33.56
2016-05-16T08:05:11.309Z,33.18
2016-05-16T08:06:11.187Z,33.18
2016-05-16T08:07:11.034Z,33.28
2016-05-16T08:08:11.193Z,33.64
2016-05-16T08:09:11.211Z,33.66
2016-05-16T08:10:11.214Z,33.85
2016-05-16T08:11:11.217Z,33.56
2016-05-16T08:12:11.235Z,32.89
2016-05-16T08:13:11.238Z,33.18
2016-05-16T08:14:11.240Z,33.54
2016-05-16T08:15:11.244Z,33.54
2016-05-16T08:16:11.090Z,33.84
2016-05-16T08:17:11.249Z,33.91
2016-05-16T08:18:11.267Z,34.2
2016-05-16T08:19:11.269Z,34.49
2016-05-16T08:20:11.272Z,34.01
2016-05-16T08:21:26.996Z,33.93
2016-05-16T08:22:11.293Z,34.12
2016-05-16T08:23:18.096Z,33.64
2016-05-16T08:24:11.299Z,32.79
2016-05-16T08:25:11.317Z,32.21
2016-05-16T08:26:11.319Z,31.93
2016-05-16T08:27:11.322Z,32.3
2016-05-16T08:28:11.324Z,31.82
2016-05-16T08:29:11.327Z,32.2
2016-05-16T08:30:11.345Z,32.39
2016-05-16T08:31:11.348Z,32.1
2016-05-16T08:32:11.196Z,32.12
2016-05-16T08:33:11.354Z,31.18
2016-05-16T08:34:11.357Z,30.5
2016-05-16T08:35:11.218Z,29.63
2016-05-16T08:36:11.378Z,29.63
2016-05-16T08:37:11.381Z,29.91
2016-05-16T08:38:11.398Z,30.77
2016-05-16T08:39:11.401Z,30.95
2016-05-16T08:40:11.404Z,31.06
2016-05-16T08:41:11.406Z,30.87
2016-05-16T08:42:11.425Z,30.87
2016-05-16T08:43:11.428Z,30.87
2016-05-16T08:44:11.274Z,30.87
2016-05-16T08:45:11.293Z,30.79
2016-05-16T08:46:11.451Z,30.69
2016-05-16T08:47:11.469Z,30.11
2016-05-16T08:48:11.458Z,29.63
2016-05-16T08:49:11.319Z,30
2016-05-16T08:50:11.478Z,29.52
2016-05-16T08:51:11.933Z,29.81
2016-05-16T08:52:11.483Z,29.81
2016-05-16T08:53:11.502Z,29.8
2016-05-16T08:54:11.504Z,30.38
2016-05-16T08:55:11.366Z,30.18
2016-05-16T08:56:11.510Z,29.97
2016-05-16T08:57:11.513Z,29.79
2016-05-16T08:58:11.530Z,29.96
2016-05-16T08:59:11.533Z,30.63
2016-05-16T09:00:11.535Z,30.62
2016-05-16T09:01:11.538Z,30.81
2016-05-16T09:02:11.540Z,31.29
2016-05-16T09:03:11.543Z,31.29
2016-05-16T09:04:12.188Z,31.58
2016-05-16T09:05:11.549Z,31.67
2016-05-16T09:06:12.146Z,32.15
2016-05-16T09:07:11.945Z,31.95
2016-05-16T09:08:11.573Z,31.85
2016-05-16T09:09:12.342Z,32.14
2016-05-16T09:10:11.562Z,32.14
2016-05-16T09:11:12.019Z,32.14
2016-05-16T09:13:11.681Z,31.85
2016-05-16T09:14:11.573Z,32.03
2016-05-16T09:15:11.576Z,32.51
2016-05-16T09:16:12.469Z,32.41
2016-05-16T09:17:11.581Z,32.51
2016-05-16T09:18:11.583Z,32.78
2016-05-16T09:19:11.586Z,32.97
2016-05-16T09:20:26.296Z,33.06
2016-05-16T09:21:12.405Z,33.14
2016-05-16T09:22:11.439Z,33.14
2016-05-16T09:23:12.254Z,33.06
2016-05-16T09:24:11.600Z,32.97
2016-05-16T09:25:11.885Z,33.25
2016-05-16T09:26:11.606Z,33.25
2016-05-16T09:27:11.608Z,32.87
2016-05-16T09:28:11.440Z,32.97
2016-05-16T09:29:11.599Z,32.97
2016-05-16T09:30:11.601Z,33.08
2016-05-16T09:31:11.604Z,33.06
2016-05-16T09:32:11.606Z,32.78
2016-05-16T09:33:11.609Z,32.78
2016-05-16T09:34:11.612Z,32.87
2016-05-16T09:35:11.615Z,33.06
2016-05-16T09:36:11.446Z,33.06
2016-05-16T09:37:11.604Z,32.97
2016-05-16T09:38:11.623Z,32.78
2016-05-16T09:39:11.453Z,32.39
2016-05-16T09:40:11.612Z,32.39
2016-05-16T09:41:11.615Z,32.51
2016-05-16T09:42:11.617Z,32.41
2016-05-16T09:43:11.620Z,32.51
2016-05-16T09:44:11.608Z,32.41
2016-05-16T09:45:11.626Z,31.26
2016-05-16T09:46:11.613Z,31.07
2016-05-16T09:47:11.616Z,31.35
2016-05-16T09:48:11.618Z,31.84
2016-05-16T09:49:11.621Z,31.93
2016-05-16T09:50:11.624Z,31.74
2016-05-16T09:51:11.657Z,31.53
2016-05-16T09:52:11.630Z,31.82
2016-05-16T09:53:11.632Z,31.72
2016-05-16T09:54:11.963Z,31.05
2016-05-16T09:55:11.621Z,31.15
2016-05-16T09:56:11.624Z,31.24
2016-05-16T09:57:11.627Z,31.34
2016-05-16T09:58:11.630Z,31.05
2016-05-16T09:59:11.649Z,31.34
2016-05-16T10:00:11.635Z,31.53
2016-05-16T10:01:11.638Z,31.34
2016-05-16T10:02:11.468Z,30.97
2016-05-16T10:03:11.643Z,30.86
2016-05-16T10:04:11.629Z,31.26
2016-05-16T10:05:11.632Z,31.16
2016-05-16T10:06:12.010Z,31.07
2016-05-16T10:07:11.638Z,31.26
2016-05-16T10:08:11.641Z,31.35
2016-05-16T10:09:11.643Z,31.37
2016-05-16T10:10:11.646Z,31.37
2016-05-16T10:11:11.648Z,31.37
2016-05-16T10:12:11.636Z,30.7
2016-05-16T10:13:11.639Z,30.71
2016-05-16T10:14:11.704Z,30.33
2016-05-16T10:15:12.238Z,30.04
2016-05-16T10:16:11.647Z,29.37
2016-05-16T10:17:11.650Z,29.1
2016-05-16T10:18:22.733Z,29.19
2016-05-16T10:19:11.655Z,29.1
2016-05-16T10:20:11.641Z,29.02
2016-05-16T10:21:11.676Z,28.82
2016-05-16T10:22:11.663Z,28.15
2016-05-16T10:23:11.666Z,27.95
2016-05-16T10:24:12.559Z,27.58
2016-05-16T10:25:12.702Z,27.19
2016-05-16T10:26:12.127Z,27
2016-05-16T10:27:11.660Z,26.23
2016-05-16T10:28:11.679Z,26.15
2016-05-16T10:29:11.729Z,25.76
2016-05-16T10:30:12.216Z,24.9
2016-05-16T10:31:11.516Z,24.7
2016-05-16T10:32:12.455Z,24.71
2016-05-16T10:34:12.210Z,24.04
2016-05-16T10:35:12.526Z,23.85
2016-05-16T10:36:12.465Z,24.05
2016-05-16T10:37:12.094Z,24.05
2016-05-16T10:38:11.690Z,23.67
2016-05-16T10:39:13.005Z,24.04
2016-05-16T10:40:11.712Z,23.85
2016-05-16T10:41:11.715Z,24.14
2016-05-16T10:42:12.217Z,24.23
2016-05-16T10:43:11.720Z,24.52
2016-05-16T10:44:11.722Z,24.13
2016-05-16T10:45:11.725Z,24.81
2016-05-16T10:46:11.727Z,24.41
2016-05-16T10:47:11.730Z,24.9
2016-05-16T10:48:11.733Z,24.51
2016-05-16T10:49:11.751Z,24.51
2016-05-16T10:50:11.738Z,24.03
2016-05-16T10:51:11.959Z,24.14
2016-05-16T10:52:11.743Z,24.04
2016-05-16T10:53:11.747Z,23.94
2016-05-16T10:54:11.749Z,23.85
2016-05-16T10:55:11.752Z,23.56
2016-05-16T10:56:11.755Z,23.94
2016-05-16T10:57:11.600Z,23.74
2016-05-16T10:58:11.800Z,23.93
2016-05-16T10:59:11.850Z,23.65
2016-05-16T11:00:11.899Z,23.26
2016-05-16T11:01:11.949Z,23.44
2016-05-16T11:02:11.998Z,23.15
2016-05-16T11:03:12.022Z,23.25
2016-05-16T11:04:12.042Z,23.25
2016-05-16T11:05:11.904Z,23.15
2016-05-16T11:06:12.596Z,23.25
2016-05-16T11:07:11.944Z,22.96
2016-05-16T11:08:12.110Z,23.25
2016-05-16T11:09:12.134Z,23.25
2016-05-16T11:10:12.127Z,23.15
2016-05-16T11:11:12.136Z,23.25
2016-05-16T11:12:12.145Z,23.83
2016-05-16T11:13:12.150Z,24.02
2016-05-16T11:14:12.154Z,24.11
2016-05-16T11:15:12.160Z,24.69
2016-05-16T11:16:12.164Z,24.49
2016-05-16T11:17:12.170Z,24.96
2016-05-16T11:18:12.173Z,24.58
2016-05-16T11:19:12.191Z,25.06
2016-05-16T11:20:12.196Z,24.87
2016-05-16T11:21:12.323Z,24.87
2016-05-16T11:22:12.187Z,25.06
2016-05-16T11:23:12.191Z,25.06
2016-05-16T11:24:12.208Z,25.16
2016-05-16T11:25:12.197Z,24.96
2016-05-16T11:26:12.042Z,24.87
2016-05-16T11:27:12.202Z,24.68
2016-05-16T11:28:12.205Z,24.68
2016-05-16T11:29:12.208Z,24.77
2016-05-16T11:30:12.053Z,24.69
2016-05-16T11:31:12.214Z,24.88
2016-05-16T11:32:12.216Z,24.99
2016-05-16T11:33:12.234Z,25.47
2016-05-16T11:34:12.222Z,25.28
2016-05-16T11:35:12.067Z,25.76
2016-05-16T11:36:12.227Z,25.67
2016-05-16T11:37:12.229Z,25.76
2016-05-16T11:38:12.232Z,25.47
2016-05-16T11:39:12.235Z,25.01
2016-05-16T11:40:12.238Z,24.9
2016-05-16T11:41:12.240Z,24.99
2016-05-16T11:42:13.024Z,24.61
2016-05-16T11:43:12.245Z,24.8
2016-05-16T11:44:13.638Z,24.62
2016-05-16T11:45:12.251Z,24.52
2016-05-16T11:46:12.596Z,24.81
2016-05-16T11:47:12.866Z,24.14
2016-05-16T11:48:13.102Z,24.14
2016-05-16T11:49:12.965Z,24.23
2016-05-16T11:50:12.265Z,24.33
2016-05-16T11:51:14.454Z,24.33
2016-05-16T11:52:12.645Z,24.14
2016-05-16T11:53:13.412Z,23.75
2016-05-16T11:54:13.525Z,23.94
2016-05-16T11:55:12.434Z,23.56
2016-05-16T11:56:12.124Z,23.85
2016-05-16T11:57:12.298Z,23.28
2016-05-16T11:58:12.739Z,23.19
2016-05-16T11:59:12.600Z,23.19
2016-05-16T12:00:12.995Z,22.9
2016-05-16T12:01:12.294Z,23.09
2016-05-16T12:02:12.312Z,23.09
2016-05-16T12:03:12.300Z,22.99
2016-05-16T12:04:12.317Z,23.09
2016-05-16T12:05:12.352Z,23.19
2016-05-16T12:06:12.182Z,22.89
2016-05-16T12:07:12.325Z,22.71
2016-05-16T12:08:12.328Z,22.31
2016-05-16T12:09:12.331Z,21.73
2016-05-16T12:10:12.177Z,21.73
2016-05-16T12:11:12.180Z,21.54
2016-05-16T12:12:12.355Z,20.97
2016-05-16T12:13:12.341Z,21.54
2016-05-16T12:14:12.344Z,21.44
2016-05-16T12:15:12.347Z,21.92
2016-05-16T12:16:12.350Z,21.35
2016-05-16T12:17:12.196Z,21.64
2016-05-16T12:18:12.355Z,21.44
2016-05-16T12:19:12.357Z,21.64
2016-05-16T12:20:12.360Z,21.83
2016-05-16T12:21:13.019Z,22.12
2016-05-16T12:22:12.365Z,22.31
2016-05-16T12:23:12.369Z,22.69
2016-05-16T12:24:12.371Z,22.31
2016-05-16T12:25:12.218Z,22.71
2016-05-16T12:26:12.392Z,22.42
2016-05-16T12:27:12.379Z,22.8
2016-05-16T12:28:12.382Z,23.09
2016-05-16T12:29:12.384Z,22.99
2016-05-16T12:30:12.403Z,23.09
2016-05-16T12:31:12.406Z,22.99
2016-05-16T12:32:12.409Z,22.52
2016-05-16T12:33:12.411Z,22.42
2016-05-16T12:34:12.414Z,22.89
2016-05-16T12:35:12.416Z,23.08
2016-05-16T12:36:12.325Z,23.16
2016-05-16T12:37:12.280Z,23.16
2016-05-16T12:38:12.425Z,23.55
2016-05-16T12:39:12.428Z,23.54
2016-05-16T12:40:12.430Z,23.92
2016-05-16T12:41:12.449Z,24.1
2016-05-16T12:42:12.279Z,24.2
2016-05-16T12:43:12.282Z,24.2
2016-05-16T12:44:12.440Z,24.39
2016-05-16T12:45:12.443Z,24.38
2016-05-16T12:46:12.446Z,24.39
2016-05-16T12:47:12.449Z,24.48
2016-05-16T12:48:12.451Z,24.76
2016-05-16T12:49:12.454Z,24.38
2016-05-16T12:50:12.457Z,24.66
2016-05-16T12:51:12.521Z,24.48
2016-05-16T12:52:12.463Z,24.48
2016-05-16T12:53:12.480Z,24.48
2016-05-16T12:54:12.452Z,24.09
2016-05-16T12:55:12.455Z,23.99
2016-05-16T12:56:12.301Z,23.72
2016-05-16T12:57:12.459Z,23.91
2016-05-16T12:58:12.462Z,24.01
2016-05-16T12:59:12.465Z,23.52
2016-05-16T13:00:13.656Z,23.72
2016-05-16T13:01:13.549Z,23.72
2016-05-16T13:02:12.942Z,23.62